createdAt,value
2022-07-28T00:00:24.240Z,69.61
2022-07-28T00:02:56.368Z,69.76
2022-07-28T00:05:30.600Z,69.75
2022-07-28T00:08:03.228Z,69.82
2022-07-28T00:10:35.802Z,70.00
2022-07-28T00:13:07.883Z,70.05
2022-07-28T00:15:39.857Z,70.10
2022-07-28T00:18:11.789Z,70.25
2022-07-28T00:20:44.019Z,70.16
2022-07-28T00:23:16.349Z,69.99
2022-07-28T00:25:48.704Z,69.03
2022-07-28T00:28:20.667Z,68.14
2022-07-28T00:30:54.217Z,67.68
2022-07-28T00:33:27.113Z,67.59
2022-07-28T00:35:59.140Z,67.33
2022-07-28T00:38:32.016Z,67.13
2022-07-28T00:41:13.403Z,67.27
2022-07-28T00:43:48.511Z,67.12
2022-07-28T00:46:23.078Z,67.30
2022-07-28T00:48:56.540Z,67.17
2022-07-28T00:51:29.641Z,67.30
2022-07-28T00:54:01.976Z,67.23
2022-07-28T00:56:35.924Z,67.23
2022-07-28T00:59:08.377Z,67.29
2022-07-28T01:01:40.488Z,67.30
2022-07-28T01:04:13.096Z,67.49
2022-07-28T01:06:54.082Z,67.47
2022-07-28T01:09:53.189Z,67.41
2022-07-28T01:12:49.304Z,67.55
2022-07-28T01:15:33.394Z,67.45
2022-07-28T01:18:08.548Z,67.60
2022-07-28T01:20:55.673Z,67.11
2022-07-28T01:23:30.739Z,67.18
2022-07-28T01:26:26.733Z,67.09
2022-07-28T01:29:10.711Z,67.06
2022-07-28T01:31:45.777Z,67.05
2022-07-28T01:34:23.749Z,67.18
2022-07-28T01:36:58.834Z,67.24
2022-07-28T01:39:33.909Z,67.22
2022-07-28T01:42:08.464Z,67.05
2022-07-28T01:44:43.571Z,66.85
2022-07-28T01:47:17.982Z,66.65
2022-07-28T01:49:51.002Z,66.69
2022-07-28T01:52:24.599Z,66.00
2022-07-28T01:55:00.210Z,66.60
2022-07-28T01:57:35.936Z,66.90
2022-07-28T02:00:11.635Z,67.15
2022-07-28T02:02:49.364Z,67.22
2022-07-28T02:05:23.551Z,67.18
2022-07-28T02:07:58.580Z,67.01
2022-07-28T02:10:31.600Z,67.03
2022-07-28T02:13:05.108Z,67.01
2022-07-28T02:15:40.344Z,66.62
2022-07-28T02:18:13.171Z,66.29
2022-07-28T02:21:03.294Z,65.93
2022-07-28T02:23:36.686Z,65.64
2022-07-28T02:26:11.811Z,65.21
2022-07-28T02:28:47.275Z,64.89
2022-07-28T02:31:22.646Z,64.76
2022-07-28T02:34:00.115Z,64.46
2022-07-28T02:36:38.154Z,64.32
2022-07-28T02:39:14.832Z,64.11
2022-07-28T02:41:49.857Z,64.01
2022-07-28T02:44:24.831Z,63.85
2022-07-28T02:46:59.362Z,63.91
2022-07-28T02:49:33.684Z,63.53
2022-07-28T02:52:07.757Z,62.87
2022-07-28T02:54:41.289Z,61.93
2022-07-28T02:57:15.967Z,61.59
2022-07-28T02:59:51.607Z,61.13
2022-07-28T03:02:25.165Z,60.83
2022-07-28T03:04:59.322Z,60.50
2022-07-28T03:07:36.512Z,60.04
2022-07-28T03:10:12.590Z,59.64
2022-07-28T03:12:44.773Z,59.61
2022-07-28T03:15:17.598Z,59.44
2022-07-28T03:17:49.682Z,59.43
2022-07-28T03:20:22.006Z,59.63
2022-07-28T03:22:54.226Z,59.29
2022-07-28T03:25:29.977Z,59.30
2022-07-28T03:28:04.529Z,59.09
2022-07-28T03:30:42.874Z,58.97
2022-07-28T03:33:15.206Z,58.73
2022-07-28T03:35:50.232Z,58.44
2022-07-28T03:38:27.761Z,58.50
2022-07-28T03:41:00.903Z,58.27
2022-07-28T03:43:34.730Z,58.50
2022-07-28T03:46:12.845Z,58.51
2022-07-28T03:48:42.587Z,58.63
2022-07-28T03:51:14.913Z,58.46
2022-07-28T03:53:47.740Z,58.69
2022-07-28T03:56:20.080Z,58.74
2022-07-28T03:58:52.162Z,58.59
2022-07-28T04:01:24.539Z,58.78
2022-07-28T04:03:57.263Z,58.92
2022-07-28T04:06:29.550Z,58.81
2022-07-28T04:09:01.824Z,58.91
2022-07-28T04:11:34.277Z,59.16
2022-07-28T04:14:06.360Z,59.37
2022-07-28T04:16:39.382Z,59.85
2022-07-28T04:19:14.442Z,60.36
2022-07-28T04:21:46.938Z,60.51
2022-07-28T04:24:20.047Z,60.56
2022-07-28T04:26:52.781Z,60.52
2022-07-28T04:29:27.349Z,60.46
2022-07-28T04:31:59.592Z,60.39
2022-07-28T04:34:31.657Z,60.15
2022-07-28T04:37:04.389Z,60.18
2022-07-28T04:39:36.865Z,60.26
2022-07-28T04:42:09.361Z,60.19
2022-07-28T04:44:42.705Z,59.68
2022-07-28T04:47:15.380Z,59.01
2022-07-28T04:49:47.501Z,58.40
2022-07-28T04:52:20.181Z,57.71
2022-07-28T04:54:52.585Z,57.28
2022-07-28T04:57:27.053Z,56.92
2022-07-28T05:00:04.289Z,56.66
2022-07-28T05:02:37.675Z,56.06
2022-07-28T05:05:10.685Z,55.54
2022-07-28T05:07:43.261Z,54.77
2022-07-28T05:10:16.219Z,53.52
2022-07-28T05:12:49.897Z,53.10
2022-07-28T05:15:22.592Z,52.66
2022-07-28T05:17:55.175Z,52.15
2022-07-28T05:20:27.805Z,51.70
2022-07-28T05:23:00.070Z,52.20
2022-07-28T05:25:32.530Z,52.56
2022-07-28T05:28:05.995Z,52.27
2022-07-28T05:30:38.531Z,52.17
2022-07-28T05:33:10.594Z,52.51
2022-07-28T05:35:42.920Z,52.42
2022-07-28T05:38:15.449Z,52.25
2022-07-28T05:40:50.246Z,52.15
2022-07-28T05:43:23.139Z,51.56
2022-07-28T05:45:55.751Z,51.58
2022-07-28T05:48:28.244Z,51.40
2022-07-28T05:51:01.317Z,51.08
2022-07-28T05:53:34.896Z,50.40
2022-07-28T05:56:08.688Z,50.09
2022-07-28T05:58:41.132Z,49.07
2022-07-28T06:01:13.349Z,48.48
2022-07-28T06:03:58.066Z,47.61
2022-07-28T06:06:19.398Z,47.17
2022-07-28T06:08:51.229Z,47.85
2022-07-28T06:11:24.693Z,46.39
2022-07-28T06:13:57.562Z,45.64
2022-07-28T06:16:30.357Z,44.48
2022-07-28T06:19:02.884Z,44.22
2022-07-28T06:21:36.944Z,44.14
2022-07-28T06:24:09.679Z,43.76
2022-07-28T06:26:44.868Z,43.99
2022-07-28T06:29:17.028Z,44.24
2022-07-28T06:31:50.516Z,44.88
2022-07-28T06:34:23.985Z,45.20
2022-07-28T06:36:56.552Z,45.40
2022-07-28T06:39:28.817Z,45.45
2022-07-28T06:42:01.805Z,45.79
2022-07-28T06:44:57.520Z,44.78
2022-07-28T06:47:10.691Z,45.04
2022-07-28T06:49:43.385Z,44.45
2022-07-28T06:52:17.378Z,44.26
2022-07-28T06:54:58.300Z,43.13
2022-07-28T06:57:33.560Z,43.02
2022-07-28T07:00:07.940Z,43.09
2022-07-28T07:02:41.820Z,42.83
2022-07-28T07:05:14.538Z,42.35
2022-07-28T07:07:47.236Z,42.37
2022-07-28T07:10:19.985Z,42.20
2022-07-28T07:12:52.473Z,43.19
2022-07-28T07:15:25.656Z,42.65
2022-07-28T07:18:00.415Z,42.49
2022-07-28T07:20:32.922Z,42.40
2022-07-28T07:23:05.670Z,42.05
2022-07-28T07:25:38.504Z,41.59
2022-07-28T07:28:11.165Z,42.02
2022-07-28T07:30:43.942Z,41.83
2022-07-28T07:33:16.677Z,41.53
2022-07-28T07:35:48.917Z,41.39
2022-07-28T07:38:23.169Z,41.01
2022-07-28T07:40:55.348Z,41.08
2022-07-28T07:43:27.800Z,40.77
2022-07-28T07:46:00.236Z,40.57
2022-07-28T07:48:32.810Z,40.65
2022-07-28T07:51:05.351Z,40.33
2022-07-28T07:53:37.957Z,40.07
2022-07-28T07:56:10.254Z,39.81
2022-07-28T07:58:44.887Z,38.74
2022-07-28T08:01:18.449Z,38.70
2022-07-28T08:03:51.524Z,38.95
2022-07-28T08:06:26.500Z,38.20
2022-07-28T08:08:59.425Z,37.71
2022-07-28T08:11:31.877Z,37.51
2022-07-28T08:14:04.654Z,36.88
2022-07-28T08:16:38.075Z,36.62
2022-07-28T08:19:11.051Z,35.94
2022-07-28T08:21:43.999Z,36.23
2022-07-28T08:24:27.615Z,36.21
2022-07-28T08:26:53.035Z,36.61
2022-07-28T08:29:25.370Z,36.85
2022-07-28T08:31:59.946Z,36.46
2022-07-28T08:34:33.984Z,36.02
2022-07-28T08:37:07.174Z,35.92
2022-07-28T08:39:40.092Z,36.06
2022-07-28T08:42:30.319Z,35.57
2022-07-28T08:45:07.813Z,35.71
2022-07-28T08:47:58.659Z,35.86
2022-07-28T08:50:19.829Z,36.19
2022-07-28T08:52:53.709Z,36.68
2022-07-28T08:55:31.887Z,37.12
2022-07-28T08:58:01.369Z,36.42
2022-07-28T09:00:33.875Z,36.00
2022-07-28T09:03:07.230Z,35.75
2022-07-28T09:05:42.051Z,35.44
2022-07-28T09:08:14.798Z,35.31
2022-07-28T09:10:48.410Z,36.32
2022-07-28T09:13:20.850Z,35.96
2022-07-28T09:15:53.489Z,35.86
2022-07-28T09:18:28.143Z,36.23
2022-07-28T09:21:00.630Z,36.72
2022-07-28T09:23:48.237Z,36.98
2022-07-28T09:26:20.585Z,36.24
2022-07-28T09:28:59.092Z,36.13
2022-07-28T09:31:31.819Z,36.68
2022-07-28T09:34:07.405Z,36.49
2022-07-28T09:36:42.155Z,36.81
2022-07-28T09:39:17.123Z,36.97
2022-07-28T09:41:51.703Z,36.41
2022-07-28T09:44:27.477Z,35.92
2022-07-28T09:46:59.814Z,36.05
2022-07-28T09:49:43.494Z,35.15
2022-07-28T09:52:17.383Z,34.73
2022-07-28T09:55:03.824Z,34.09
2022-07-28T09:57:38.051Z,33.09
2022-07-28T10:00:12.802Z,33.09
2022-07-28T10:02:48.709Z,33.44
2022-07-28T10:05:22.640Z,33.50
2022-07-28T10:07:55.099Z,33.89
2022-07-28T10:10:27.293Z,34.09
2022-07-28T10:13:06.920Z,34.27
2022-07-28T10:15:56.775Z,34.24
2022-07-28T10:18:28.856Z,34.47
2022-07-28T10:21:01.209Z,35.01
2022-07-28T10:23:33.821Z,34.77
2022-07-28T10:26:13.061Z,34.45
2022-07-28T10:28:51.978Z,34.08
2022-07-28T10:31:49.882Z,33.68
2022-07-28T10:34:43.141Z,33.57
2022-07-28T10:37:24.561Z,32.74
2022-07-28T10:40:10.698Z,33.08
2022-07-28T10:42:42.555Z,32.98
2022-07-28T10:45:15.585Z,33.35
2022-07-28T10:47:49.205Z,29.62
2022-07-28T10:50:23.013Z,29.48
2022-07-28T10:52:59.344Z,29.59
2022-07-28T10:55:52.241Z,29.80
2022-07-28T10:58:36.285Z,30.86
2022-07-28T11:01:17.066Z,31.65
2022-07-28T11:03:48.834Z,30.81
2022-07-28T11:06:44.856Z,31.01
2022-07-28T11:09:22.950Z,31.36
2022-07-28T11:11:58.130Z,31.72
2022-07-28T11:14:37.158Z,32.07
2022-07-28T11:17:13.465Z,32.69
2022-07-28T11:20:06.980Z,32.27
2022-07-28T11:22:27.118Z,31.27
2022-07-28T11:25:18.732Z,31.20
2022-07-28T11:27:49.275Z,29.95
2022-07-28T11:30:33.909Z,29.21
2022-07-28T11:33:06.788Z,30.14
2022-07-28T11:35:44.865Z,29.94
2022-07-28T11:38:17.671Z,30.86
2022-07-28T11:40:52.267Z,31.62
2022-07-28T11:43:36.206Z,32.91
2022-07-28T11:46:11.287Z,35.15
2022-07-28T11:48:45.467Z,36.63
2022-07-28T11:51:17.499Z,37.60
2022-07-28T11:53:53.055Z,38.55
2022-07-28T11:56:29.498Z,38.61
2022-07-28T11:59:03.753Z,38.35
2022-07-28T12:01:38.692Z,38.50
2022-07-28T12:04:14.818Z,38.48
2022-07-28T12:06:51.219Z,38.35
2022-07-28T12:09:33.730Z,38.38
2022-07-28T12:12:01.923Z,39.14
2022-07-28T12:14:39.009Z,39.12
2022-07-28T12:17:12.309Z,40.88
2022-07-28T12:19:45.851Z,42.47
2022-07-28T12:22:18.287Z,41.82
2022-07-28T12:24:53.636Z,41.69
2022-07-28T12:27:31.894Z,40.09
2022-07-28T12:30:05.750Z,39.51
2022-07-28T12:32:38.126Z,39.50
2022-07-28T12:35:10.692Z,39.44
2022-07-28T12:37:44.629Z,39.14
2022-07-28T12:40:27.499Z,38.99
2022-07-28T12:42:55.309Z,40.45
2022-07-28T12:45:28.697Z,40.17
2022-07-28T12:48:10.614Z,40.33
2022-07-28T12:50:43.661Z,39.56
2022-07-28T12:53:18.333Z,39.90
2022-07-28T12:55:53.018Z,38.57
2022-07-28T12:58:27.629Z,35.75
2022-07-28T13:01:00.203Z,31.66
2022-07-28T13:03:33.894Z,28.92
2022-07-28T13:06:12.200Z,28.64
2022-07-28T13:08:48.476Z,29.46
2022-07-28T13:13:57.909Z,32.08
2022-07-28T13:16:31.015Z,34.03
2022-07-28T13:19:05.926Z,36.23
2022-07-28T13:21:41.092Z,37.88
2022-07-28T13:24:18.678Z,37.40
2022-07-28T13:26:51.556Z,39.18
2022-07-28T13:29:24.257Z,39.89
2022-07-28T13:31:56.715Z,41.81
2022-07-28T13:34:29.394Z,43.97
2022-07-28T13:37:01.516Z,49.67
2022-07-28T13:39:33.754Z,50.27
2022-07-28T13:42:06.548Z,54.72
2022-07-28T13:44:40.441Z,59.46
2022-07-28T13:47:12.675Z,61.02
2022-07-28T13:49:46.661Z,64.98
2022-07-28T13:52:32.937Z,66.38
2022-07-28T13:54:54.274Z,67.92
2022-07-28T13:57:26.503Z,68.73
2022-07-28T13:59:58.780Z,70.03
2022-07-28T14:02:31.025Z,72.04
2022-07-28T14:05:03.520Z,73.54
2022-07-28T14:07:35.810Z,73.33
2022-07-28T14:10:08.715Z,73.56
2022-07-28T14:12:41.214Z,71.97
2022-07-28T14:15:15.342Z,71.51
2022-07-28T14:17:47.777Z,72.10
2022-07-28T14:20:20.101Z,71.55
2022-07-28T14:22:52.530Z,70.47
2022-07-28T14:25:24.851Z,70.01
2022-07-28T14:27:56.938Z,69.37
2022-07-28T14:30:33.312Z,68.75
2022-07-28T14:33:07.325Z,67.44
2022-07-28T14:35:39.677Z,66.33
2022-07-28T14:40:45.788Z,65.43
2022-07-28T14:43:18.206Z,65.43
2022-07-28T14:46:14.790Z,64.82
2022-07-28T14:48:24.190Z,64.01
2022-07-28T14:50:57.235Z,62.79
2022-07-28T14:53:29.601Z,62.40
2022-07-28T14:56:01.966Z,60.89
2022-07-28T14:58:34.171Z,59.74
2022-07-28T15:01:06.742Z,58.91
2022-07-28T15:03:43.399Z,57.93
2022-07-28T15:06:14.018Z,56.47
2022-07-28T15:08:46.214Z,55.96
2022-07-28T15:11:18.302Z,54.85
2022-07-28T15:13:50.496Z,54.24
2022-07-28T15:16:22.998Z,54.43
2022-07-28T15:18:55.587Z,53.73
2022-07-28T15:21:32.979Z,53.74
2022-07-28T15:24:09.476Z,53.32
2022-07-28T15:26:41.762Z,54.10
2022-07-28T15:29:14.668Z,54.70
2022-07-28T15:31:47.201Z,53.62
2022-07-28T15:34:20.355Z,54.41
2022-07-28T15:36:52.777Z,54.70
2022-07-28T15:39:25.146Z,55.04
2022-07-28T15:41:58.992Z,55.62
2022-07-28T15:44:31.914Z,55.51
2022-07-28T15:47:04.307Z,55.61
2022-07-28T15:49:36.479Z,55.81
2022-07-28T15:52:08.639Z,55.74
2022-07-28T15:54:40.812Z,55.68
2022-07-28T15:57:13.996Z,55.44
2022-07-28T15:59:50.170Z,55.07
2022-07-28T16:02:20.731Z,55.07
2022-07-28T16:04:54.154Z,55.35
2022-07-28T16:07:28.248Z,55.82
2022-07-28T16:10:00.410Z,55.53
2022-07-28T16:12:33.623Z,55.84
2022-07-28T16:15:06.571Z,56.26
2022-07-28T16:17:38.825Z,56.47
2022-07-28T16:20:11.758Z,56.86
2022-07-28T16:22:44.360Z,57.21
2022-07-28T16:25:21.055Z,57.71
2022-07-28T16:27:54.106Z,58.24
2022-07-28T16:30:26.989Z,58.79
2022-07-28T16:32:59.547Z,59.06
2022-07-28T16:35:34.606Z,59.51
2022-07-28T16:38:07.984Z,59.95
2022-07-28T16:40:40.845Z,60.34
2022-07-28T16:43:13.227Z,60.88
2022-07-28T16:45:46.172Z,61.37
2022-07-28T16:48:18.367Z,61.88
2022-07-28T16:50:50.541Z,62.68
2022-07-28T16:53:22.411Z,63.20
2022-07-28T16:55:55.051Z,63.86
2022-07-28T16:58:27.067Z,64.54
2022-07-28T17:01:00.121Z,65.05
2022-07-28T17:03:32.961Z,65.47
2022-07-28T17:06:05.419Z,65.80
2022-07-28T17:08:37.647Z,66.28
2022-07-28T17:11:10.416Z,66.44
2022-07-28T17:13:45.408Z,66.56
2022-07-28T17:16:17.019Z,66.56
2022-07-28T17:18:49.387Z,66.82
2022-07-28T17:21:21.702Z,64.71
2022-07-28T17:23:53.932Z,63.82
2022-07-28T17:29:00.593Z,63.00
2022-07-28T17:31:33.695Z,63.16
2022-07-28T17:34:06.390Z,63.82
2022-07-28T17:36:41.336Z,64.79
2022-07-28T17:39:14.286Z,64.98
2022-07-28T17:41:46.269Z,65.24
2022-07-28T17:44:18.833Z,65.85
2022-07-28T17:46:52.199Z,66.01
2022-07-28T17:49:24.378Z,66.20
2022-07-28T17:51:56.867Z,66.20
2022-07-28T17:54:30.458Z,65.95
2022-07-28T17:57:03.443Z,65.65
2022-07-28T17:59:51.455Z,65.73
2022-07-28T18:02:10.433Z,64.38
2022-07-28T18:04:42.560Z,63.56
2022-07-28T18:07:15.554Z,63.86
2022-07-28T18:09:47.781Z,63.75
2022-07-28T18:12:20.028Z,63.71
2022-07-28T18:14:52.461Z,63.55
2022-07-28T18:17:25.379Z,63.32
2022-07-28T18:19:57.685Z,62.80
2022-07-28T18:22:29.912Z,63.61
2022-07-28T18:25:03.001Z,63.53
2022-07-28T18:27:36.960Z,63.68
2022-07-28T18:30:09.765Z,63.19
2022-07-28T18:32:41.759Z,63.61
2022-07-28T18:35:14.070Z,63.04
2022-07-28T18:37:46.467Z,63.59
2022-07-28T18:40:21.619Z,63.60
2022-07-28T18:42:54.217Z,63.47
2022-07-28T18:45:26.668Z,63.45
2022-07-28T18:47:59.927Z,63.84
2022-07-28T18:50:32.443Z,64.07
2022-07-28T18:53:04.857Z,64.20
2022-07-28T18:55:36.979Z,64.27
2022-07-28T18:58:09.389Z,63.74
2022-07-28T19:00:41.444Z,63.87
2022-07-28T19:03:13.545Z,64.12
2022-07-28T19:05:46.511Z,64.21
2022-07-28T19:08:18.683Z,64.04
2022-07-28T19:10:50.963Z,64.07
2022-07-28T19:13:22.983Z,64.06
2022-07-28T19:15:55.124Z,63.94
2022-07-28T19:18:27.342Z,64.21
2022-07-28T19:20:59.854Z,64.19
2022-07-28T19:23:32.521Z,64.41
2022-07-28T19:26:04.643Z,64.68
2022-07-28T19:28:36.734Z,64.99
2022-07-28T19:31:10.466Z,65.18
2022-07-28T19:33:43.862Z,64.89
2022-07-28T19:36:16.526Z,64.91
2022-07-28T19:38:48.621Z,65.09
2022-07-28T19:41:20.748Z,65.04
2022-07-28T19:43:53.073Z,65.13
2022-07-28T19:46:26.189Z,65.75
2022-07-28T19:48:58.791Z,65.67
2022-07-28T19:51:30.863Z,66.13
2022-07-28T19:54:03.115Z,66.61
2022-07-28T19:56:35.303Z,66.15
2022-07-28T19:59:07.309Z,66.86
2022-07-28T20:01:44.198Z,66.95
2022-07-28T20:04:13.060Z,67.39
2022-07-28T20:06:45.249Z,66.88
2022-07-28T20:09:17.737Z,67.49
2022-07-28T20:11:50.669Z,68.01
2022-07-28T20:14:22.652Z,67.99
2022-07-28T20:16:54.870Z,68.01
2022-07-28T20:19:27.016Z,68.50
2022-07-28T20:21:59.275Z,68.35
2022-07-28T20:24:31.426Z,68.42
2022-07-28T20:27:08.335Z,68.52
2022-07-28T20:29:40.600Z,68.83
2022-07-28T20:32:13.022Z,68.95
2022-07-28T20:34:45.218Z,69.07
2022-07-28T20:37:24.507Z,69.25
2022-07-28T20:39:57.454Z,68.94
2022-07-28T20:42:29.840Z,68.95
2022-07-28T20:45:02.187Z,69.12
2022-07-28T20:47:35.074Z,68.97
2022-07-28T20:50:08.085Z,69.09
2022-07-28T20:52:40.255Z,69.45
2022-07-28T20:55:12.827Z,69.35
2022-07-28T20:57:53.523Z,69.64
2022-07-28T21:00:19.075Z,69.80
2022-07-28T21:02:51.611Z,69.39
2022-07-28T21:05:26.793Z,69.64
2022-07-28T21:08:05.080Z,69.24
2022-07-28T21:10:31.866Z,69.28
2022-07-28T21:13:03.967Z,69.05
2022-07-28T21:15:36.167Z,69.14
2022-07-28T21:18:08.180Z,69.14
2022-07-28T21:20:40.534Z,69.06
2022-07-28T21:23:12.599Z,68.95
2022-07-28T21:25:45.652Z,68.91
2022-07-28T21:28:35.025Z,68.11
2022-07-28T21:31:07.842Z,68.36
2022-07-28T21:33:40.257Z,67.39
2022-07-28T21:36:12.437Z,68.27
2022-07-28T21:38:45.695Z,68.24
2022-07-28T21:41:19.294Z,68.40
2022-07-28T21:43:53.510Z,68.33
2022-07-28T21:46:26.513Z,68.33
2022-07-28T21:49:01.269Z,68.70
2022-07-28T21:51:34.364Z,68.46
2022-07-28T21:54:06.629Z,67.95
2022-07-28T21:56:38.821Z,67.40
2022-07-28T21:59:10.902Z,66.95
2022-07-28T22:01:43.157Z,67.21
2022-07-28T22:04:15.704Z,67.81
2022-07-28T22:06:48.442Z,67.98
2022-07-28T22:09:20.805Z,68.22
2022-07-28T22:11:53.084Z,68.20
2022-07-28T22:14:26.973Z,68.07
2022-07-28T22:17:01.506Z,67.89
2022-07-28T22:19:34.151Z,67.73
2022-07-28T22:22:06.160Z,67.31
2022-07-28T22:24:38.419Z,67.12
2022-07-28T22:27:10.478Z,67.32
2022-07-28T22:29:43.484Z,66.91
2022-07-28T22:32:16.546Z,66.52
2022-07-28T22:34:48.993Z,66.92
2022-07-28T22:37:20.975Z,66.66
2022-07-28T22:39:53.276Z,66.19
2022-07-28T22:42:25.284Z,66.33
2022-07-28T22:44:57.292Z,66.66
2022-07-28T22:47:29.734Z,66.40
2022-07-28T22:50:01.723Z,66.56
2022-07-28T22:52:34.585Z,66.62
2022-07-28T22:55:07.189Z,67.04
2022-07-28T22:57:40.498Z,67.18
2022-07-28T23:00:12.856Z,67.14
2022-07-28T23:02:44.966Z,67.50
2022-07-28T23:05:17.239Z,67.69
2022-07-28T23:07:53.093Z,67.63
2022-07-28T23:10:23.172Z,67.42
2022-07-28T23:12:58.583Z,67.80
2022-07-28T23:15:40.902Z,68.21
2022-07-28T23:18:03.369Z,68.28
2022-07-28T23:20:35.820Z,68.65
2022-07-28T23:23:08.122Z,68.22
2022-07-28T23:25:43.046Z,67.92
2022-07-28T23:28:15.245Z,67.84
2022-07-28T23:30:48.229Z,68.01
2022-07-28T23:33:54.659Z,67.73
2022-07-28T23:35:55.802Z,67.92
2022-07-28T23:38:27.882Z,67.78
2022-07-28T23:40:59.894Z,67.80
2022-07-28T23:43:32.173Z,67.91
2022-07-28T23:46:04.210Z,67.95
2022-07-28T23:48:36.892Z,67.88
2022-07-28T23:51:08.990Z,67.62
2022-07-28T23:53:42.850Z,67.62
2022-07-28T23:56:15.960Z,66.88
2022-07-28T23:58:47.995Z,66.73
